createdAt,value
2022-11-02T00:00:41.230Z,8.90
2022-11-02T00:03:08.454Z,8.93
2022-11-02T00:05:35.262Z,9.00
2022-11-02T00:08:01.590Z,8.96
2022-11-02T00:10:29.772Z,8.89
2022-11-02T00:12:56.429Z,8.88
2022-11-02T00:15:26.701Z,8.90
2022-11-02T00:17:58.546Z,8.87
2022-11-02T00:20:27.784Z,8.89
2022-11-02T00:22:57.733Z,8.95
2022-11-02T00:25:26.057Z,8.85
2022-11-02T00:27:53.018Z,8.89
2022-11-02T00:30:19.786Z,8.95
2022-11-02T00:32:46.570Z,8.91
2022-11-02T00:35:13.021Z,8.89
2022-11-02T00:37:39.678Z,8.85
2022-11-02T00:40:06.632Z,8.87
2022-11-02T00:42:33.208Z,8.77
2022-11-02T00:44:59.581Z,8.87
2022-11-02T00:47:25.974Z,8.92
2022-11-02T00:49:52.297Z,8.95
2022-11-02T00:52:18.606Z,9.05
2022-11-02T00:54:44.969Z,9.06
2022-11-02T00:57:11.438Z,9.02
2022-11-02T00:59:37.890Z,9.04
2022-11-02T01:02:04.649Z,9.12
2022-11-02T01:04:31.196Z,9.09
2022-11-02T01:06:57.741Z,9.10
2022-11-02T01:09:24.513Z,9.11
2022-11-02T01:11:51.505Z,9.06
2022-11-02T01:14:17.904Z,9.10
2022-11-02T01:19:16.079Z,9.02
2022-11-02T01:21:42.519Z,8.97
2022-11-02T01:24:08.898Z,9.05
2022-11-02T01:26:35.279Z,9.08
2022-11-02T01:29:01.659Z,9.04
2022-11-02T01:31:27.942Z,9.02
2022-11-02T01:33:54.322Z,9.01
2022-11-02T01:38:52.574Z,9.12
2022-11-02T01:41:18.941Z,9.23
2022-11-02T01:43:54.576Z,9.19
2022-11-02T01:46:30.111Z,9.15
2022-11-02T01:49:08.327Z,9.15
2022-11-02T01:51:59.720Z,9.18
2022-11-02T01:54:28.762Z,9.18
2022-11-02T01:57:07.073Z,9.12
2022-11-02T01:59:45.862Z,9.05
2022-11-02T02:02:18.103Z,9.17
2022-11-02T02:04:47.808Z,9.01
2022-11-02T02:07:15.837Z,8.96
2022-11-02T02:09:44.165Z,9.00
2022-11-02T02:12:13.962Z,8.91
2022-11-02T02:14:40.397Z,8.94
2022-11-02T02:17:14.525Z,9.01
2022-11-02T02:19:52.050Z,9.04
2022-11-02T02:22:40.351Z,9.04
2022-11-02T02:25:32.243Z,9.09
2022-11-02T02:28:30.247Z,9.05
2022-11-02T02:31:04.313Z,9.17
2022-11-02T02:34:02.528Z,9.14
2022-11-02T02:36:52.180Z,9.10
2022-11-02T02:39:39.142Z,9.10
2022-11-02T02:42:14.580Z,9.15
2022-11-02T02:44:46.873Z,9.20
2022-11-02T02:47:23.441Z,9.24
2022-11-02T02:50:03.390Z,9.26
2022-11-02T02:52:32.495Z,9.32
2022-11-02T02:55:00.836Z,9.30
2022-11-02T02:57:31.583Z,9.38
2022-11-02T02:59:58.699Z,9.36
2022-11-02T03:02:29.880Z,9.44
2022-11-02T03:04:56.202Z,9.50
2022-11-02T03:07:33.974Z,9.53
2022-11-02T03:10:16.639Z,9.47
2022-11-02T03:12:58.378Z,9.49
2022-11-02T03:15:40.296Z,9.48
2022-11-02T03:18:30.901Z,9.53
2022-11-02T03:21:01.335Z,9.52
2022-11-02T03:23:39.426Z,9.51
2022-11-02T03:26:08.941Z,9.51
2022-11-02T03:28:57.098Z,9.45
2022-11-02T03:31:35.598Z,9.38
2022-11-02T03:34:14.386Z,9.35
2022-11-02T03:36:51.846Z,9.42
2022-11-02T03:39:24.859Z,9.31
2022-11-02T03:41:54.144Z,9.33
2022-11-02T03:44:25.129Z,9.29
2022-11-02T03:46:56.486Z,9.29
2022-11-02T03:49:24.650Z,9.23
2022-11-02T03:51:52.762Z,9.13
2022-11-02T03:54:42.684Z,9.09
2022-11-02T03:57:17.972Z,9.16
2022-11-02T03:59:44.679Z,9.15
2022-11-02T04:02:13.575Z,9.13
2022-11-02T04:04:49.228Z,9.16
2022-11-02T04:07:19.825Z,9.05
2022-11-02T04:09:46.131Z,9.05
2022-11-02T04:12:30.976Z,9.10
2022-11-02T04:14:57.286Z,9.16
2022-11-02T04:17:42.353Z,9.06
2022-11-02T04:20:09.279Z,9.10
2022-11-02T04:22:54.006Z,9.09
2022-11-02T04:25:21.011Z,9.12
2022-11-02T04:27:50.224Z,9.09
2022-11-02T04:30:18.836Z,9.13
2022-11-02T04:33:05.873Z,9.09
2022-11-02T04:35:33.620Z,9.11
2022-11-02T04:38:18.782Z,9.10
2022-11-02T04:40:45.390Z,9.21
2022-11-02T04:43:11.957Z,9.17
2022-11-02T04:45:38.483Z,9.10
2022-11-02T04:48:07.948Z,9.05
2022-11-02T04:50:35.660Z,9.16
2022-11-02T04:53:04.225Z,9.17
2022-11-02T04:55:31.282Z,9.19
2022-11-02T04:57:57.706Z,9.19
2022-11-02T05:00:24.507Z,9.19
2022-11-02T05:02:51.203Z,9.21
2022-11-02T05:05:18.049Z,9.29
2022-11-02T05:07:44.411Z,9.28
2022-11-02T05:10:11.422Z,9.21
2022-11-02T05:12:37.772Z,9.18
2022-11-02T05:15:04.839Z,9.25
2022-11-02T05:17:31.303Z,9.22
2022-11-02T05:19:57.580Z,9.24
2022-11-02T05:22:23.952Z,9.19
2022-11-02T05:24:50.260Z,9.26
2022-11-02T05:27:16.683Z,9.23
2022-11-02T05:29:42.993Z,9.23
2022-11-02T05:32:09.282Z,9.34
2022-11-02T05:34:35.609Z,9.36
2022-11-02T05:37:01.909Z,9.33
2022-11-02T05:39:28.223Z,9.33
2022-11-02T05:41:54.610Z,9.34
2022-11-02T05:44:20.896Z,9.34
2022-11-02T05:46:47.186Z,9.31
2022-11-02T05:49:13.533Z,9.25
2022-11-02T05:51:39.851Z,9.25
2022-11-02T05:54:06.164Z,9.27
2022-11-02T05:56:32.479Z,9.26
2022-11-02T05:58:58.759Z,9.29
2022-11-02T06:01:25.108Z,9.32
2022-11-02T06:03:53.696Z,9.26
2022-11-02T06:06:20.586Z,9.25
2022-11-02T06:08:46.898Z,9.25
2022-11-02T06:11:14.425Z,9.29
2022-11-02T06:13:41.810Z,9.31
2022-11-02T06:16:10.563Z,9.27
2022-11-02T06:18:38.261Z,9.26
2022-11-02T06:21:04.879Z,9.31
2022-11-02T06:23:31.285Z,9.36
2022-11-02T06:25:59.578Z,9.45
2022-11-02T06:28:26.429Z,9.51
2022-11-02T06:30:53.087Z,9.50
2022-11-02T06:33:20.167Z,9.52
2022-11-02T06:35:48.066Z,9.56
2022-11-02T06:38:14.913Z,9.68
2022-11-02T06:40:41.228Z,9.71
2022-11-02T06:43:23.380Z,9.79
2022-11-02T06:45:50.205Z,9.85
2022-11-02T06:48:16.617Z,9.90
2022-11-02T06:50:43.133Z,9.92
2022-11-02T06:53:09.393Z,9.93
2022-11-02T06:55:35.721Z,9.91
2022-11-02T06:58:02.065Z,9.94
2022-11-02T07:00:29.753Z,9.89
2022-11-02T07:03:05.093Z,9.87
2022-11-02T07:05:32.553Z,9.84
2022-11-02T07:07:59.570Z,9.83
2022-11-02T07:10:26.911Z,9.90
2022-11-02T07:12:54.695Z,9.93
2022-11-02T07:15:22.368Z,9.91
2022-11-02T07:17:49.020Z,9.95
2022-11-02T07:20:15.509Z,10.02
2022-11-02T07:22:42.152Z,10.06
2022-11-02T07:25:08.812Z,10.11
2022-11-02T07:27:39.988Z,10.13
2022-11-02T07:30:07.824Z,10.21
2022-11-02T07:32:44.494Z,10.26
2022-11-02T07:35:12.742Z,10.34
2022-11-02T07:37:39.753Z,10.42
2022-11-02T07:40:08.796Z,10.48
2022-11-02T07:42:35.526Z,10.59
2022-11-02T07:45:01.968Z,10.60
2022-11-02T07:47:28.301Z,10.65
2022-11-02T07:49:54.882Z,10.64
2022-11-02T07:52:21.192Z,10.73
2022-11-02T07:54:47.535Z,10.71
2022-11-02T07:57:13.863Z,10.77
2022-11-02T07:59:40.359Z,10.82
2022-11-02T08:02:09.601Z,10.77
2022-11-02T08:04:38.394Z,10.84
2022-11-02T08:07:07.216Z,10.85
2022-11-02T08:09:33.933Z,10.88
2022-11-02T08:12:00.382Z,10.98
2022-11-02T08:14:26.858Z,10.90
2022-11-02T08:16:53.283Z,10.95
2022-11-02T08:19:19.602Z,10.97
2022-11-02T08:21:45.925Z,11.04
2022-11-02T08:24:12.262Z,11.04
2022-11-02T08:26:41.002Z,11.12
2022-11-02T08:29:10.765Z,11.21
2022-11-02T08:31:40.152Z,11.17
2022-11-02T08:34:06.686Z,11.20
2022-11-02T08:36:36.704Z,11.21
2022-11-02T08:39:03.352Z,11.27
2022-11-02T08:41:29.731Z,11.30
2022-11-02T08:43:57.351Z,11.36
2022-11-02T08:46:23.724Z,11.38
2022-11-02T08:48:52.886Z,11.46
2022-11-02T08:51:19.277Z,11.45
2022-11-02T08:53:51.145Z,11.46
2022-11-02T08:56:18.075Z,11.49
2022-11-02T08:58:44.401Z,11.58
2022-11-02T09:01:10.740Z,11.69
2022-11-02T09:03:37.208Z,11.77
2022-11-02T09:06:03.716Z,11.89
2022-11-02T09:08:30.621Z,11.86
2022-11-02T09:11:02.330Z,11.93
2022-11-02T09:13:29.001Z,12.01
2022-11-02T09:15:57.617Z,11.99
2022-11-02T09:18:25.035Z,12.02
2022-11-02T09:20:51.920Z,12.06
2022-11-02T09:23:20.542Z,12.08
2022-11-02T09:25:47.036Z,12.04
2022-11-02T09:28:15.272Z,12.01
2022-11-02T09:30:42.114Z,11.93
2022-11-02T09:33:09.173Z,11.90
2022-11-02T09:35:39.034Z,11.95
2022-11-02T09:38:06.014Z,12.00
2022-11-02T09:40:36.970Z,12.05
2022-11-02T09:43:27.108Z,12.06
2022-11-02T09:46:06.294Z,12.07
2022-11-02T09:48:43.235Z,12.13
2022-11-02T09:51:44.681Z,12.17
2022-11-02T09:54:39.172Z,12.15
2022-11-02T09:57:11.783Z,12.00
2022-11-02T09:59:38.209Z,11.90
2022-11-02T10:02:13.369Z,11.96
2022-11-02T10:05:20.604Z,11.88
2022-11-02T10:08:38.041Z,11.90
2022-11-02T10:11:33.385Z,11.89
2022-11-02T10:14:15.019Z,11.72
2022-11-02T10:16:55.274Z,11.50
2022-11-02T10:19:24.994Z,11.27
2022-11-02T10:21:58.275Z,11.05
2022-11-02T10:24:42.640Z,10.87
2022-11-02T10:27:33.044Z,10.81
2022-11-02T10:30:20.193Z,10.75
2022-11-02T10:32:52.647Z,10.57
2022-11-02T10:35:45.840Z,10.47
2022-11-02T10:38:44.112Z,10.38
2022-11-02T10:41:25.024Z,10.26
2022-11-02T10:44:23.654Z,10.22
2022-11-02T10:47:21.938Z,10.19
2022-11-02T10:49:55.768Z,10.10
2022-11-02T10:52:22.529Z,10.08
2022-11-02T10:54:52.118Z,10.21
2022-11-02T10:57:25.665Z,10.40
2022-11-02T11:00:28.064Z,10.49
2022-11-02T11:03:14.854Z,10.67
2022-11-02T11:05:50.346Z,10.80
2022-11-02T11:08:35.413Z,10.92
2022-11-02T11:11:22.043Z,11.01
2022-11-02T11:20:35.740Z,11.16
2022-11-02T11:23:25.219Z,11.39
2022-11-02T11:26:26.266Z,11.57
2022-11-02T11:28:57.477Z,11.55
2022-11-02T11:31:24.529Z,11.48
2022-11-02T11:33:54.540Z,11.46
2022-11-02T11:36:23.072Z,11.57
2022-11-02T11:38:50.834Z,11.62
2022-11-02T11:41:17.618Z,11.70
2022-11-02T11:43:46.302Z,11.77
2022-11-02T11:46:13.972Z,11.69
2022-11-02T11:48:48.943Z,11.72
2022-11-02T11:51:37.472Z,11.73
2022-11-02T11:54:05.390Z,11.77
2022-11-02T11:56:32.950Z,11.80
2022-11-02T11:58:59.371Z,11.79
2022-11-02T12:01:25.753Z,11.91
2022-11-02T12:03:56.074Z,11.95
2022-11-02T12:06:54.515Z,12.15
2022-11-02T12:09:32.055Z,12.14
2022-11-02T12:12:17.246Z,12.00
2022-11-02T12:14:52.488Z,11.96
2022-11-02T12:17:24.801Z,11.79
2022-11-02T12:20:28.599Z,11.58
2022-11-02T12:23:19.859Z,11.56
2022-11-02T12:26:21.523Z,11.39
2022-11-02T12:29:12.631Z,11.32
2022-11-02T12:31:45.764Z,11.23
2022-11-02T12:34:24.744Z,11.20
2022-11-02T12:37:31.649Z,11.15
2022-11-02T12:39:54.350Z,11.15
2022-11-02T12:42:28.792Z,11.24
2022-11-02T12:44:57.891Z,11.34
2022-11-02T12:47:36.294Z,11.53
2022-11-02T12:50:11.328Z,11.69
2022-11-02T12:52:48.864Z,11.89
2022-11-02T12:55:20.278Z,12.11
2022-11-02T12:57:48.122Z,12.27
2022-11-02T13:00:22.387Z,12.46
2022-11-02T13:03:02.767Z,12.52
2022-11-02T13:05:43.453Z,12.40
2022-11-02T13:08:19.720Z,12.47
2022-11-02T13:10:57.302Z,12.51
2022-11-02T13:13:45.433Z,12.64
2022-11-02T13:16:15.425Z,12.70
2022-11-02T13:18:49.632Z,12.71
2022-11-02T13:21:23.119Z,12.86
2022-11-02T13:23:54.784Z,13.09
2022-11-02T13:26:30.036Z,13.00
2022-11-02T13:29:07.591Z,12.85
2022-11-02T13:31:37.686Z,12.65
2022-11-02T13:34:11.031Z,12.20
2022-11-02T13:36:40.958Z,11.41
2022-11-02T13:39:35.141Z,10.77
2022-11-02T13:42:25.621Z,10.49
2022-11-02T13:45:15.211Z,10.57
2022-11-02T13:48:22.793Z,10.22
2022-11-02T13:50:51.992Z,10.20
2022-11-02T13:53:26.150Z,9.99
2022-11-02T13:55:57.401Z,9.92
2022-11-02T13:58:25.478Z,9.84
2022-11-02T14:00:54.377Z,9.83
2022-11-02T14:03:42.964Z,9.74
2022-11-02T14:06:15.048Z,9.71
2022-11-02T14:08:48.683Z,9.70
2022-11-02T14:11:14.965Z,9.74
2022-11-02T14:13:53.580Z,9.97
2022-11-02T14:16:58.005Z,10.16
2022-11-02T14:19:47.384Z,10.20
2022-11-02T14:22:18.611Z,10.22
2022-11-02T14:24:44.943Z,10.20
2022-11-02T14:27:18.940Z,10.40
2022-11-02T14:29:45.241Z,10.56
2022-11-02T14:32:20.721Z,10.76
2022-11-02T14:35:17.296Z,10.75
2022-11-02T14:37:59.378Z,10.84
2022-11-02T14:40:36.195Z,10.96
2022-11-02T14:43:26.766Z,11.02
2022-11-02T14:46:13.547Z,11.15
2022-11-02T14:48:50.100Z,11.22
2022-11-02T14:51:24.247Z,11.30
2022-11-02T14:53:57.199Z,11.40
2022-11-02T14:56:24.892Z,11.52
2022-11-02T14:58:55.779Z,11.55
2022-11-02T15:01:23.098Z,11.49
2022-11-02T15:03:50.336Z,11.46
2022-11-02T15:06:27.112Z,11.46
2022-11-02T15:08:58.967Z,11.43
2022-11-02T15:12:10.554Z,11.36
2022-11-02T15:14:37.878Z,11.43
2022-11-02T15:17:10.262Z,11.34
2022-11-02T15:19:46.169Z,11.29
2022-11-02T15:22:31.323Z,11.18
2022-11-02T15:25:05.674Z,11.15
2022-11-02T15:27:34.635Z,11.10
2022-11-02T15:30:02.631Z,11.00
2022-11-02T15:32:34.613Z,10.90
2022-11-02T15:35:02.235Z,10.87
2022-11-02T15:37:37.418Z,10.87
2022-11-02T15:40:22.218Z,10.86
2022-11-02T15:42:56.255Z,10.82
2022-11-02T15:45:50.579Z,10.74
2022-11-02T15:48:39.928Z,10.69
2022-11-02T15:51:21.624Z,10.72
2022-11-02T15:53:56.985Z,10.72
2022-11-02T15:56:35.834Z,10.62
2022-11-02T15:59:37.230Z,10.59
2022-11-02T16:02:26.690Z,10.32
2022-11-02T16:04:56.679Z,10.24
2022-11-02T16:07:33.450Z,10.21
2022-11-02T16:10:26.993Z,10.26
2022-11-02T16:13:14.083Z,10.32
2022-11-02T16:15:42.334Z,10.11
2022-11-02T16:18:29.565Z,10.14
2022-11-02T16:21:00.495Z,10.02
2022-11-02T16:23:30.055Z,10.04
2022-11-02T16:25:59.029Z,10.04
2022-11-02T16:28:26.425Z,10.04
2022-11-02T16:30:59.039Z,9.92
2022-11-02T16:33:29.012Z,9.89
2022-11-02T16:35:55.828Z,9.81
2022-11-02T16:38:23.265Z,9.73
2022-11-02T16:40:50.318Z,9.71
2022-11-02T16:43:17.207Z,9.65
2022-11-02T16:45:49.061Z,9.64
2022-11-02T16:48:29.989Z,9.60
2022-11-02T16:51:19.714Z,9.61
2022-11-02T16:53:46.351Z,9.63
2022-11-02T16:56:32.507Z,9.61
2022-11-02T16:59:06.114Z,9.53
2022-11-02T17:01:38.759Z,9.43
2022-11-02T17:04:17.641Z,9.36
2022-11-02T17:06:45.138Z,9.27
2022-11-02T17:09:25.673Z,9.18
2022-11-02T17:11:55.730Z,9.11
2022-11-02T17:14:23.320Z,9.08
2022-11-02T17:17:07.292Z,9.00
2022-11-02T17:19:39.832Z,8.81
2022-11-02T17:22:21.329Z,8.75
2022-11-02T17:24:48.855Z,8.71
2022-11-02T17:27:27.114Z,8.58
2022-11-02T17:29:54.779Z,8.47
2022-11-02T17:32:21.953Z,8.48
2022-11-02T17:34:52.758Z,8.39
2022-11-02T17:37:24.724Z,8.34
2022-11-02T17:39:51.763Z,8.31
2022-11-02T17:42:37.315Z,8.18
2022-11-02T17:45:22.582Z,8.10
2022-11-02T17:47:48.888Z,8.14
2022-11-02T17:50:15.714Z,8.18
2022-11-02T17:52:42.056Z,8.18
2022-11-02T17:55:18.035Z,8.18
2022-11-02T17:57:44.574Z,8.14
2022-11-02T18:00:12.122Z,8.12
2022-11-02T18:02:40.573Z,7.99
2022-11-02T18:05:19.933Z,7.98
2022-11-02T18:07:46.257Z,7.96
2022-11-02T18:10:12.735Z,7.90
2022-11-02T18:12:39.142Z,7.98
2022-11-02T18:15:06.008Z,7.98
2022-11-02T18:17:34.960Z,7.94
2022-11-02T18:20:01.505Z,7.94
2022-11-02T18:22:27.834Z,7.91
2022-11-02T18:24:54.119Z,7.90
2022-11-02T18:27:21.701Z,7.80
2022-11-02T18:29:50.271Z,7.87
2022-11-02T18:32:16.685Z,7.89
2022-11-02T18:34:42.950Z,7.82
2022-11-02T18:37:09.371Z,7.79
2022-11-02T18:39:35.640Z,7.71
2022-11-02T18:42:01.948Z,7.71
2022-11-02T18:44:28.238Z,7.72
2022-11-02T18:46:55.046Z,7.66
2022-11-02T18:49:21.328Z,7.67
2022-11-02T18:51:47.761Z,7.72
2022-11-02T18:54:14.871Z,7.73
2022-11-02T18:56:41.215Z,7.72
2022-11-02T18:59:07.640Z,7.63
2022-11-02T19:01:34.394Z,7.59
2022-11-02T19:04:01.289Z,7.59
2022-11-02T19:06:48.699Z,7.68
2022-11-02T19:09:19.805Z,7.70
2022-11-02T19:11:52.089Z,7.74
2022-11-02T19:14:20.079Z,7.75
2022-11-02T19:16:46.668Z,7.74
2022-11-02T19:19:13.315Z,7.76
2022-11-02T19:21:39.681Z,7.75
2022-11-02T19:24:07.089Z,7.69
2022-11-02T19:26:34.170Z,7.63
2022-11-02T19:29:04.907Z,7.65
2022-11-02T19:31:34.386Z,7.56
2022-11-02T19:34:01.039Z,7.52
2022-11-02T19:36:27.667Z,7.52
2022-11-02T19:38:54.084Z,7.49
2022-11-02T19:41:21.577Z,7.43
2022-11-02T19:43:47.919Z,7.34
2022-11-02T19:46:22.448Z,7.29
2022-11-02T19:48:49.372Z,7.42
2022-11-02T19:51:20.373Z,7.46
2022-11-02T19:53:49.397Z,7.50
2022-11-02T19:56:17.278Z,7.48
2022-11-02T19:58:45.475Z,7.37
2022-11-02T20:01:13.331Z,7.33
2022-11-02T20:03:40.445Z,7.33
2022-11-02T20:06:09.605Z,7.43
2022-11-02T20:08:35.942Z,7.39
2022-11-02T20:11:21.421Z,7.35
2022-11-02T20:13:48.878Z,7.28
2022-11-02T20:16:18.322Z,7.26
2022-11-02T20:18:46.707Z,7.17
2022-11-02T20:21:18.328Z,7.17
2022-11-02T20:23:45.415Z,7.12
2022-11-02T20:26:14.319Z,7.15
2022-11-02T20:28:44.590Z,7.08
2022-11-02T20:31:14.095Z,7.06
2022-11-02T20:33:40.735Z,7.05
2022-11-02T20:36:08.077Z,7.07
2022-11-02T20:38:35.758Z,7.10
2022-11-02T20:41:09.466Z,7.03
2022-11-02T20:43:37.084Z,7.02
2022-11-02T20:46:36.975Z,7.02
2022-11-02T20:49:14.045Z,6.96
2022-11-02T20:51:47.830Z,6.94
2022-11-02T20:54:14.139Z,6.94
2022-11-02T20:56:40.449Z,6.96
2022-11-02T20:59:06.816Z,6.92
2022-11-02T21:01:34.754Z,6.91
2022-11-02T21:04:01.243Z,6.92
2022-11-02T21:06:27.565Z,6.92
2022-11-02T21:08:53.905Z,6.93
2022-11-02T21:11:38.934Z,6.95
2022-11-02T21:14:05.247Z,6.92
2022-11-02T21:16:31.548Z,6.89
2022-11-02T21:18:57.865Z,6.83
2022-11-02T21:21:24.129Z,6.81
2022-11-02T21:23:50.502Z,6.76
2022-11-02T21:26:17.126Z,6.72
2022-11-02T21:28:47.451Z,6.68
2022-11-02T21:31:16.476Z,6.57
2022-11-02T21:33:44.114Z,6.57
2022-11-02T21:36:10.606Z,6.61
2022-11-02T21:38:37.544Z,6.64
2022-11-02T21:41:06.312Z,6.65
2022-11-02T21:43:35.848Z,6.60
2022-11-02T21:46:03.589Z,6.60
2022-11-02T21:48:32.313Z,6.57
2022-11-02T21:51:00.348Z,6.65
2022-11-02T21:53:26.814Z,6.66
2022-11-02T21:56:08.308Z,6.59
2022-11-02T21:58:35.531Z,6.57
2022-11-02T22:01:24.282Z,6.52
2022-11-02T22:03:51.767Z,6.48
2022-11-02T22:06:20.821Z,6.54
2022-11-02T22:08:47.491Z,6.57
2022-11-02T22:11:27.523Z,6.52
2022-11-02T22:13:55.950Z,6.53
2022-11-02T22:16:31.901Z,6.50
2022-11-02T22:19:00.161Z,6.54
2022-11-02T22:21:29.328Z,6.51
2022-11-02T22:23:56.487Z,6.42
2022-11-02T22:26:25.619Z,6.37
2022-11-02T22:28:52.516Z,6.38
2022-11-02T22:31:24.643Z,6.35
2022-11-02T22:33:53.486Z,6.38
2022-11-02T22:36:22.850Z,6.38
2022-11-02T22:38:53.672Z,6.37
2022-11-02T22:41:30.434Z,6.43
2022-11-02T22:43:59.656Z,6.36
2022-11-02T22:46:27.455Z,6.32
2022-11-02T22:48:56.294Z,6.27
2022-11-02T22:51:25.894Z,6.28
2022-11-02T22:53:52.223Z,6.20
2022-11-02T22:56:20.784Z,6.20
2022-11-02T22:58:48.205Z,6.19
2022-11-02T23:01:17.420Z,6.16
2022-11-02T23:03:44.114Z,6.12
2022-11-02T23:06:11.461Z,6.16
2022-11-02T23:08:45.831Z,6.26
2022-11-02T23:11:22.671Z,6.20
2022-11-02T23:13:57.476Z,6.24
2022-11-02T23:16:29.658Z,6.25
2022-11-02T23:19:29.634Z,6.20
2022-11-02T23:22:29.832Z,6.26
2022-11-02T23:25:10.945Z,6.23
2022-11-02T23:27:58.122Z,6.26
2022-11-02T23:30:44.762Z,6.14
2022-11-02T23:33:11.090Z,6.14
2022-11-02T23:35:56.438Z,6.18
2022-11-02T23:38:22.800Z,6.24
2022-11-02T23:40:53.591Z,6.31
2022-11-02T23:43:19.970Z,6.23
2022-11-02T23:45:46.251Z,6.30
2022-11-02T23:48:12.603Z,6.33
2022-11-02T23:50:57.886Z,6.32
2022-11-02T23:53:42.909Z,6.33
2022-11-02T23:56:35.053Z,6.31
2022-11-02T23:59:07.442Z,6.32
